createdAt,value
2022-08-05T00:06:05.047Z,99994.34
2022-08-05T00:21:08.541Z,99988.69
2022-08-05T00:36:16.258Z,99990.44
2022-08-05T00:51:50.527Z,99991.63
2022-08-05T01:06:55.078Z,99983.88
2022-08-05T01:22:00.411Z,100003.50
2022-08-05T01:37:24.426Z,100018.81
2022-08-05T01:52:28.368Z,100023.50
2022-08-05T02:07:34.127Z,100032.06
2022-08-05T02:22:42.497Z,100013.44
2022-08-05T02:37:47.869Z,100016.47
2022-08-05T02:52:56.446Z,100018.06
2022-08-05T03:08:06.682Z,100031.09
2022-08-05T03:23:11.315Z,100036.69
2022-08-05T03:38:16.410Z,100023.75
2022-08-05T03:55:51.937Z,100029.88
2022-08-05T04:08:57.284Z,100017.09
2022-08-05T04:24:06.601Z,99996.22
2022-08-05T04:39:10.790Z,99986.88
2022-08-05T04:54:15.313Z,99987.03
2022-08-05T05:09:18.404Z,99998.84
2022-08-05T05:24:22.013Z,100000.78
2022-08-05T05:39:24.269Z,100011.88
2022-08-05T05:54:33.541Z,100017.84
2022-08-05T06:10:01.403Z,100029.63
2022-08-05T06:25:25.323Z,100052.03
2022-08-05T06:40:32.610Z,100081.50
2022-08-05T06:55:36.394Z,100070.63
2022-08-05T07:10:53.235Z,100090.31
2022-08-05T07:25:56.956Z,100099.78
2022-08-05T07:41:04.533Z,100094.13
2022-08-05T07:57:00.162Z,100090.97
2022-08-05T08:11:48.183Z,100093.56
2022-08-05T08:26:57.230Z,100075.69
2022-08-05T08:42:02.202Z,100075.72
2022-08-05T08:57:11.519Z,100058.16
2022-08-05T09:12:20.552Z,100051.41
2022-08-05T09:28:03.758Z,100040.16
2022-08-05T09:43:08.458Z,100032.50
2022-08-05T09:58:15.479Z,100034.44
2022-08-05T10:13:45.817Z,100015.66
2022-08-05T10:28:51.246Z,99997.16
2022-08-05T10:44:02.105Z,100018.94
2022-08-05T11:00:01.137Z,100017.97
2022-08-05T11:14:57.809Z,100015.34
2022-08-05T11:30:00.880Z,99986.94
2022-08-05T11:45:05.651Z,99994.22
2022-08-05T12:00:28.814Z,99991.16
2022-08-05T12:15:38.087Z,99997.47
2022-08-05T12:30:45.826Z,100020.75
2022-08-05T12:45:56.396Z,100047.59
2022-08-05T13:01:59.710Z,100050.31
2022-08-05T13:16:24.917Z,100056.19
2022-08-05T13:31:34.152Z,100064.94
2022-08-05T13:47:04.592Z,100147.03
2022-08-05T14:02:08.874Z,100160.75
2022-08-05T14:17:26.499Z,100186.16
2022-08-05T14:32:31.916Z,100183.41
2022-08-05T14:48:03.543Z,100143.50
2022-08-05T15:02:58.198Z,100157.75
2022-08-05T15:18:03.596Z,100151.50
2022-08-05T15:33:06.745Z,100110.09
2022-08-05T15:48:10.173Z,100103.84
2022-08-05T16:03:16.503Z,100084.22
2022-08-05T16:18:28.988Z,100102.34
2022-08-05T16:33:41.380Z,100085.25
2022-08-05T16:48:43.891Z,100088.97
2022-08-05T17:03:45.837Z,100099.19
2022-08-05T17:18:47.710Z,100107.44
2022-08-05T17:33:50.960Z,100140.56
2022-08-05T17:48:53.663Z,100151.31
2022-08-05T18:04:03.562Z,100155.91
2022-08-05T18:19:07.701Z,100163.44
2022-08-05T18:34:12.808Z,100164.88
2022-08-05T18:49:44.578Z,100167.38
2022-08-05T19:05:03.220Z,100175.66
2022-08-05T19:20:21.654Z,100162.56
2022-08-05T19:35:25.828Z,100148.69
2022-08-05T19:50:47.761Z,100162.94
2022-08-05T20:05:51.318Z,100156.78
2022-08-05T20:20:55.049Z,100136.75
2022-08-05T20:35:58.404Z,100138.94
2022-08-05T20:51:00.293Z,100123.78
2022-08-05T21:06:27.864Z,100110.69
2022-08-05T21:21:39.165Z,100112.13
2022-08-05T21:36:46.664Z,100117.56
2022-08-05T21:52:22.649Z,100114.03
2022-08-05T22:07:13.102Z,100114.41
2022-08-05T22:22:16.122Z,100103.50
2022-08-05T22:37:18.200Z,100107.78
2022-08-05T22:52:30.192Z,100087.38
2022-08-05T23:07:44.875Z,100090.09
2022-08-05T23:22:50.000Z,100104.91
2022-08-05T23:37:58.017Z,100095.84
2022-08-05T23:53:03.237Z,100097.34
